sensor_id;sensor_type;location;lat;lon;timestamp;temperature;humidity
20680;DHT22;10499;47.494;7.608;2023-02-15T00:01:41;2.70;99.90
20680;DHT22;10499;47.494;7.608;2023-02-15T00:04:08;2.60;99.90
20680;DHT22;10499;47.494;7.608;2023-02-15T00:06:36;2.70;99.90
20680;DHT22;10499;47.494;7.608;2023-02-15T00:09:02;2.70;99.90
20680;DHT22;10499;47.494;7.608;2023-02-15T00:11:28;2.60;99.90
20680;DHT22;10499;47.494;7.608;2023-02-15T00:16:43;2.40;99.90
20680;DHT22;10499;47.494;7.608;2023-02-15T00:19:10;2.40;99.90
20680;DHT22;10499;47.494;7.608;2023-02-15T00:21:39;2.20;99.90
20680;DHT22;10499;47.494;7.608;2023-02-15T00:24:07;2.30;99.90
20680;DHT22;10499;47.494;7.608;2023-02-15T00:26:37;2.20;99.90
20680;DHT22;10499;47.494;7.608;2023-02-15T00:29:03;2.00;99.90
20680;DHT22;10499;47.494;7.608;2023-02-15T00:31:30;2.00;99.90
20680;DHT22;10499;47.494;7.608;2023-02-15T00:34:05;1.90;99.90
20680;DHT22;10499;47.494;7.608;2023-02-15T00:36:31;1.80;99.90
20680;DHT22;10499;47.494;7.608;2023-02-15T00:38:57;1.80;99.90
20680;DHT22;10499;47.494;7.608;2023-02-15T00:41:22;1.90;99.90
20680;DHT22;10499;47.494;7.608;2023-02-15T00:43:48;1.90;99.90
20680;DHT22;10499;47.494;7.608;2023-02-15T00:46:14;1.90;99.90
20680;DHT22;10499;47.494;7.608;2023-02-15T00:48:39;2.00;99.90
20680;DHT22;10499;47.494;7.608;2023-02-15T00:51:05;2.00;99.90
20680;DHT22;10499;47.494;7.608;2023-02-15T00:53:31;2.10;99.90
20680;DHT22;10499;47.494;7.608;2023-02-15T00:55:57;1.80;99.90
20680;DHT22;10499;47.494;7.608;2023-02-15T00:58:23;1.80;99.90
20680;DHT22;10499;47.494;7.608;2023-02-15T01:00:49;1.70;99.90
20680;DHT22;10499;47.494;7.608;2023-02-15T01:03:16;1.80;99.90
20680;DHT22;10499;47.494;7.608;2023-02-15T01:05:43;2.00;99.90
20680;DHT22;10499;47.494;7.608;2023-02-15T01:08:09;2.10;99.90
20680;DHT22;10499;47.494;7.608;2023-02-15T01:10:35;2.10;99.90
20680;DHT22;10499;47.494;7.608;2023-02-15T01:13:02;2.20;99.90
20680;DHT22;10499;47.494;7.608;2023-02-15T01:15:28;2.40;99.90
20680;DHT22;10499;47.494;7.608;2023-02-15T01:17:54;2.30;99.90
20680;DHT22;10499;47.494;7.608;2023-02-15T01:20:21;2.20;99.90
20680;DHT22;10499;47.494;7.608;2023-02-15T01:22:47;2.30;99.90
20680;DHT22;10499;47.494;7.608;2023-02-15T01:25:18;2.30;99.90
20680;DHT22;10499;47.494;7.608;2023-02-15T01:27:44;2.50;99.90
20680;DHT22;10499;47.494;7.608;2023-02-15T01:30:11;2.60;99.90
20680;DHT22;10499;47.494;7.608;2023-02-15T01:32:37;2.40;99.90
20680;DHT22;10499;47.494;7.608;2023-02-15T01:35:03;2.20;99.90
20680;DHT22;10499;47.494;7.608;2023-02-15T01:37:33;2.40;99.90
20680;DHT22;10499;47.494;7.608;2023-02-15T01:40:00;2.50;99.90
20680;DHT22;10499;47.494;7.608;2023-02-15T01:42:26;2.30;99.90
20680;DHT22;10499;47.494;7.608;2023-02-15T01:44:55;2.30;99.90
20680;DHT22;10499;47.494;7.608;2023-02-15T01:47:40;2.10;99.90
20680;DHT22;10499;47.494;7.608;2023-02-15T01:50:28;1.80;99.90
20680;DHT22;10499;47.494;7.608;2023-02-15T01:53:13;2.00;99.90
20680;DHT22;10499;47.494;7.608;2023-02-15T01:55:50;2.00;99.90
20680;DHT22;10499;47.494;7.608;2023-02-15T01:58:17;2.00;99.90
20680;DHT22;10499;47.494;7.608;2023-02-15T02:00:43;1.90;99.90
20680;DHT22;10499;47.494;7.608;2023-02-15T02:03:10;2.00;99.90
20680;DHT22;10499;47.494;7.608;2023-02-15T02:05:38;2.20;99.90
20680;DHT22;10499;47.494;7.608;2023-02-15T02:08:04;2.20;99.90
20680;DHT22;10499;47.494;7.608;2023-02-15T02:10:30;2.30;99.90
20680;DHT22;10499;47.494;7.608;2023-02-15T02:12:59;2.50;99.90
20680;DHT22;10499;47.494;7.608;2023-02-15T02:16:10;2.60;99.90
20680;DHT22;10499;47.494;7.608;2023-02-15T02:24:35;2.50;99.90
20680;DHT22;10499;47.494;7.608;2023-02-15T02:29:52;2.60;99.90
20680;DHT22;10499;47.494;7.608;2023-02-15T02:35:15;2.50;99.90
20680;DHT22;10499;47.494;7.608;2023-02-15T02:40:44;2.40;99.90
20680;DHT22;10499;47.494;7.608;2023-02-15T02:43:31;2.50;99.90
20680;DHT22;10499;47.494;7.608;2023-02-15T02:46:20;2.00;99.90
20680;DHT22;10499;47.494;7.608;2023-02-15T02:48:48;2.20;99.90
20680;DHT22;10499;47.494;7.608;2023-02-15T02:51:14;2.20;99.90
20680;DHT22;10499;47.494;7.608;2023-02-15T02:53:50;2.00;99.90
20680;DHT22;10499;47.494;7.608;2023-02-15T02:56:21;2.00;99.90
20680;DHT22;10499;47.494;7.608;2023-02-15T02:59:02;2.20;99.90
20680;DHT22;10499;47.494;7.608;2023-02-15T03:01:44;2.30;99.90
20680;DHT22;10499;47.494;7.608;2023-02-15T03:04:18;2.30;99.90
20680;DHT22;10499;47.494;7.608;2023-02-15T03:09:37;2.40;99.90
20680;DHT22;10499;47.494;7.608;2023-02-15T03:12:32;2.40;99.90
20680;DHT22;10499;47.494;7.608;2023-02-15T03:15:08;2.20;99.90
20680;DHT22;10499;47.494;7.608;2023-02-15T03:17:37;2.30;99.90
20680;DHT22;10499;47.494;7.608;2023-02-15T03:20:14;2.50;99.90
20680;DHT22;10499;47.494;7.608;2023-02-15T03:22:53;2.50;99.90
20680;DHT22;10499;47.494;7.608;2023-02-15T03:25:27;2.60;99.90
20680;DHT22;10499;47.494;7.608;2023-02-15T03:28:00;2.60;99.90
20680;DHT22;10499;47.494;7.608;2023-02-15T03:30:28;2.60;99.90
20680;DHT22;10499;47.494;7.608;2023-02-15T03:32:56;2.60;99.90
20680;DHT22;10499;47.494;7.608;2023-02-15T03:35:25;2.60;99.90
20680;DHT22;10499;47.494;7.608;2023-02-15T03:37:57;2.60;99.90
20680;DHT22;10499;47.494;7.608;2023-02-15T03:40:28;2.60;99.90
20680;DHT22;10499;47.494;7.608;2023-02-15T03:45:52;2.60;99.90
20680;DHT22;10499;47.494;7.608;2023-02-15T03:48:29;2.40;99.90
20680;DHT22;10499;47.494;7.608;2023-02-15T03:51:01;2.40;99.90
20680;DHT22;10499;47.494;7.608;2023-02-15T03:53:48;2.40;99.90
20680;DHT22;10499;47.494;7.608;2023-02-15T03:56:15;2.30;99.90
20680;DHT22;10499;47.494;7.608;2023-02-15T03:58:44;2.20;99.90
20680;DHT22;10499;47.494;7.608;2023-02-15T04:01:36;2.20;99.90
20680;DHT22;10499;47.494;7.608;2023-02-15T04:04:23;2.10;99.90
20680;DHT22;10499;47.494;7.608;2023-02-15T04:06:49;2.20;99.90
20680;DHT22;10499;47.494;7.608;2023-02-15T04:09:14;2.20;99.90
20680;DHT22;10499;47.494;7.608;2023-02-15T04:11:59;2.40;99.90
20680;DHT22;10499;47.494;7.608;2023-02-15T04:14:27;2.40;99.90
20680;DHT22;10499;47.494;7.608;2023-02-15T04:17:11;2.40;99.90
20680;DHT22;10499;47.494;7.608;2023-02-15T04:19:37;2.20;99.90
20680;DHT22;10499;47.494;7.608;2023-02-15T04:22:21;2.10;99.90
20680;DHT22;10499;47.494;7.608;2023-02-15T04:25:06;2.10;99.90
20680;DHT22;10499;47.494;7.608;2023-02-15T04:27:44;2.20;99.90
20680;DHT22;10499;47.494;7.608;2023-02-15T04:30:14;2.20;99.90
20680;DHT22;10499;47.494;7.608;2023-02-15T04:32:41;2.30;99.90
20680;DHT22;10499;47.494;7.608;2023-02-15T04:35:07;2.10;99.90
20680;DHT22;10499;47.494;7.608;2023-02-15T04:37:33;2.20;99.90
20680;DHT22;10499;47.494;7.608;2023-02-15T04:39:59;2.30;99.90
20680;DHT22;10499;47.494;7.608;2023-02-15T04:42:25;2.20;99.90
20680;DHT22;10499;47.494;7.608;2023-02-15T04:44:52;2.10;99.90
20680;DHT22;10499;47.494;7.608;2023-02-15T04:47:17;2.10;99.90
20680;DHT22;10499;47.494;7.608;2023-02-15T04:49:43;2.20;99.90
20680;DHT22;10499;47.494;7.608;2023-02-15T04:52:09;2.30;99.90
20680;DHT22;10499;47.494;7.608;2023-02-15T04:54:35;2.40;99.90
20680;DHT22;10499;47.494;7.608;2023-02-15T04:57:01;2.40;99.90
20680;DHT22;10499;47.494;7.608;2023-02-15T04:59:27;2.30;99.90
20680;DHT22;10499;47.494;7.608;2023-02-15T05:01:52;2.30;99.90
20680;DHT22;10499;47.494;7.608;2023-02-15T05:04:18;2.30;99.90
20680;DHT22;10499;47.494;7.608;2023-02-15T05:06:47;2.20;99.90
20680;DHT22;10499;47.494;7.608;2023-02-15T05:09:13;2.10;99.90
20680;DHT22;10499;47.494;7.608;2023-02-15T05:11:39;2.10;99.90
20680;DHT22;10499;47.494;7.608;2023-02-15T05:14:05;2.00;99.90
20680;DHT22;10499;47.494;7.608;2023-02-15T05:16:31;1.90;99.90
20680;DHT22;10499;47.494;7.608;2023-02-15T05:18:57;1.80;99.90
20680;DHT22;10499;47.494;7.608;2023-02-15T05:21:22;1.80;99.90
20680;DHT22;10499;47.494;7.608;2023-02-15T05:23:48;2.00;99.90
20680;DHT22;10499;47.494;7.608;2023-02-15T05:26:18;1.80;99.90
20680;DHT22;10499;47.494;7.608;2023-02-15T05:29:03;1.80;99.90
20680;DHT22;10499;47.494;7.608;2023-02-15T05:31:31;2.00;99.90
20680;DHT22;10499;47.494;7.608;2023-02-15T05:33:57;2.10;99.90
20680;DHT22;10499;47.494;7.608;2023-02-15T05:36:23;2.20;99.90
20680;DHT22;10499;47.494;7.608;2023-02-15T05:38:49;2.10;99.90
20680;DHT22;10499;47.494;7.608;2023-02-15T05:41:15;1.90;99.90
20680;DHT22;10499;47.494;7.608;2023-02-15T05:43:41;1.90;99.90
20680;DHT22;10499;47.494;7.608;2023-02-15T05:46:07;2.00;99.90
20680;DHT22;10499;47.494;7.608;2023-02-15T05:48:33;2.10;99.90
20680;DHT22;10499;47.494;7.608;2023-02-15T05:51:08;1.70;99.90
20680;DHT22;10499;47.494;7.608;2023-02-15T05:53:36;1.80;99.90
20680;DHT22;10499;47.494;7.608;2023-02-15T05:56:04;2.00;99.90
20680;DHT22;10499;47.494;7.608;2023-02-15T05:58:33;2.10;99.90
20680;DHT22;10499;47.494;7.608;2023-02-15T06:00:59;2.10;99.90
20680;DHT22;10499;47.494;7.608;2023-02-15T06:03:25;1.90;99.90
20680;DHT22;10499;47.494;7.608;2023-02-15T06:05:51;2.00;99.90
20680;DHT22;10499;47.494;7.608;2023-02-15T06:08:17;2.00;99.90
20680;DHT22;10499;47.494;7.608;2023-02-15T06:10:45;2.00;99.90
20680;DHT22;10499;47.494;7.608;2023-02-15T06:13:11;2.00;99.90
20680;DHT22;10499;47.494;7.608;2023-02-15T06:15:37;1.90;99.90
20680;DHT22;10499;47.494;7.608;2023-02-15T06:18:02;1.90;99.90
20680;DHT22;10499;47.494;7.608;2023-02-15T06:20:28;2.00;99.90
20680;DHT22;10499;47.494;7.608;2023-02-15T06:22:54;2.00;99.90
20680;DHT22;10499;47.494;7.608;2023-02-15T06:25:19;2.00;99.90
20680;DHT22;10499;47.494;7.608;2023-02-15T06:27:45;2.10;99.90
20680;DHT22;10499;47.494;7.608;2023-02-15T06:30:11;2.00;99.90
20680;DHT22;10499;47.494;7.608;2023-02-15T06:32:37;2.10;99.90
20680;DHT22;10499;47.494;7.608;2023-02-15T06:35:03;2.10;99.90
20680;DHT22;10499;47.494;7.608;2023-02-15T06:37:29;1.90;99.90
20680;DHT22;10499;47.494;7.608;2023-02-15T06:39:55;1.90;99.90
20680;DHT22;10499;47.494;7.608;2023-02-15T06:42:21;1.80;99.90
20680;DHT22;10499;47.494;7.608;2023-02-15T06:44:47;1.60;99.90
20680;DHT22;10499;47.494;7.608;2023-02-15T06:47:13;1.50;99.90
20680;DHT22;10499;47.494;7.608;2023-02-15T06:49:39;1.60;99.90
20680;DHT22;10499;47.494;7.608;2023-02-15T06:52:05;1.50;99.90
20680;DHT22;10499;47.494;7.608;2023-02-15T06:54:31;1.50;99.90
20680;DHT22;10499;47.494;7.608;2023-02-15T06:56:57;1.60;99.90
20680;DHT22;10499;47.494;7.608;2023-02-15T06:59:23;1.40;99.90
20680;DHT22;10499;47.494;7.608;2023-02-15T07:01:48;1.40;99.90
20680;DHT22;10499;47.494;7.608;2023-02-15T07:04:17;1.50;99.90
20680;DHT22;10499;47.494;7.608;2023-02-15T07:06:45;1.50;99.90
20680;DHT22;10499;47.494;7.608;2023-02-15T07:09:11;1.50;99.90
20680;DHT22;10499;47.494;7.608;2023-02-15T07:11:38;1.50;99.90
20680;DHT22;10499;47.494;7.608;2023-02-15T07:14:22;1.60;99.90
20680;DHT22;10499;47.494;7.608;2023-02-15T07:16:48;1.60;99.90
20680;DHT22;10499;47.494;7.608;2023-02-15T07:19:13;1.50;99.90
20680;DHT22;10499;47.494;7.608;2023-02-15T07:21:39;1.60;99.90
20680;DHT22;10499;47.494;7.608;2023-02-15T07:24:05;1.60;99.90
20680;DHT22;10499;47.494;7.608;2023-02-15T07:26:34;1.70;99.90
20680;DHT22;10499;47.494;7.608;2023-02-15T07:28:59;1.90;99.90
20680;DHT22;10499;47.494;7.608;2023-02-15T07:31:25;2.00;99.90
20680;DHT22;10499;47.494;7.608;2023-02-15T07:33:51;2.10;99.90
20680;DHT22;10499;47.494;7.608;2023-02-15T07:36:26;2.00;99.90
20680;DHT22;10499;47.494;7.608;2023-02-15T07:38:52;2.10;99.90
20680;DHT22;10499;47.494;7.608;2023-02-15T07:41:18;2.10;99.90
20680;DHT22;10499;47.494;7.608;2023-02-15T07:43:45;2.10;99.90
20680;DHT22;10499;47.494;7.608;2023-02-15T07:46:13;2.20;99.90
20680;DHT22;10499;47.494;7.608;2023-02-15T07:48:40;2.30;99.90
20680;DHT22;10499;47.494;7.608;2023-02-15T07:51:11;2.40;99.90
20680;DHT22;10499;47.494;7.608;2023-02-15T07:53:37;2.50;99.90
20680;DHT22;10499;47.494;7.608;2023-02-15T07:56:06;2.50;99.90
20680;DHT22;10499;47.494;7.608;2023-02-15T07:58:33;2.70;99.90
20680;DHT22;10499;47.494;7.608;2023-02-15T08:03:43;3.90;99.90
20680;DHT22;10499;47.494;7.608;2023-02-15T08:06:09;5.30;96.00
20680;DHT22;10499;47.494;7.608;2023-02-15T08:08:36;6.10;91.80
20680;DHT22;10499;47.494;7.608;2023-02-15T08:11:14;8.10;84.20
20680;DHT22;10499;47.494;7.608;2023-02-15T08:19:20;12.30;63.50
20680;DHT22;10499;47.494;7.608;2023-02-15T08:21:48;13.50;59.10
20680;DHT22;10499;47.494;7.608;2023-02-15T08:24:17;14.20;56.70
20680;DHT22;10499;47.494;7.608;2023-02-15T08:26:43;14.60;54.90
20680;DHT22;10499;47.494;7.608;2023-02-15T08:29:16;14.90;53.40
20680;DHT22;10499;47.494;7.608;2023-02-15T08:31:43;15.30;52.80
20680;DHT22;10499;47.494;7.608;2023-02-15T08:34:15;15.90;51.20
20680;DHT22;10499;47.494;7.608;2023-02-15T08:36:42;16.40;49.50
20680;DHT22;10499;47.494;7.608;2023-02-15T08:39:11;16.70;48.70
20680;DHT22;10499;47.494;7.608;2023-02-15T08:41:38;16.70;48.90
20680;DHT22;10499;47.494;7.608;2023-02-15T08:44:06;17.90;45.50
20680;DHT22;10499;47.494;7.608;2023-02-15T08:46:35;18.40;45.40
20680;DHT22;10499;47.494;7.608;2023-02-15T08:49:01;19.10;43.50
20680;DHT22;10499;47.494;7.608;2023-02-15T08:51:30;19.50;42.10
20680;DHT22;10499;47.494;7.608;2023-02-15T08:53:59;19.90;41.70
20680;DHT22;10499;47.494;7.608;2023-02-15T08:56:29;20.30;40.20
20680;DHT22;10499;47.494;7.608;2023-02-15T08:58:58;20.00;41.60
20680;DHT22;10499;47.494;7.608;2023-02-15T09:01:26;20.00;41.00
20680;DHT22;10499;47.494;7.608;2023-02-15T09:03:55;20.40;40.50
20680;DHT22;10499;47.494;7.608;2023-02-15T09:06:22;21.00;39.50
20680;DHT22;10499;47.494;7.608;2023-02-15T09:08:51;21.60;38.80
20680;DHT22;10499;47.494;7.608;2023-02-15T09:11:20;21.90;38.40
20680;DHT22;10499;47.494;7.608;2023-02-15T09:14:06;21.80;38.80
20680;DHT22;10499;47.494;7.608;2023-02-15T09:16:34;22.70;37.60
20680;DHT22;10499;47.494;7.608;2023-02-15T09:19:00;23.50;36.00
20680;DHT22;10499;47.494;7.608;2023-02-15T09:21:34;24.20;34.60
20680;DHT22;10499;47.494;7.608;2023-02-15T09:24:03;24.20;34.60
20680;DHT22;10499;47.494;7.608;2023-02-15T09:26:30;24.80;33.70
20680;DHT22;10499;47.494;7.608;2023-02-15T09:28:58;24.80;33.80
20680;DHT22;10499;47.494;7.608;2023-02-15T09:31:28;24.80;33.50
20680;DHT22;10499;47.494;7.608;2023-02-15T09:33:54;24.20;35.10
20680;DHT22;10499;47.494;7.608;2023-02-15T09:39:04;25.80;31.40
20680;DHT22;10499;47.494;7.608;2023-02-15T10:06:44;29.50;27.60
20680;DHT22;10499;47.494;7.608;2023-02-15T10:12:01;28.70;28.30
20680;DHT22;10499;47.494;7.608;2023-02-15T10:27:44;30.40;27.10
20680;DHT22;10499;47.494;7.608;2023-02-15T10:33:03;31.20;26.10
20680;DHT22;10499;47.494;7.608;2023-02-15T10:47:01;31.90;25.10
20680;DHT22;10499;47.494;7.608;2023-02-15T10:52:57;32.30;25.00
20680;DHT22;10499;47.494;7.608;2023-02-15T10:55:36;32.90;24.70
20680;DHT22;10499;47.494;7.608;2023-02-15T10:58:25;33.30;24.50
20680;DHT22;10499;47.494;7.608;2023-02-15T11:00:54;34.00;23.70
20680;DHT22;10499;47.494;7.608;2023-02-15T11:06:25;33.60;23.60
20680;DHT22;10499;47.494;7.608;2023-02-15T11:09:00;33.80;23.50
20680;DHT22;10499;47.494;7.608;2023-02-15T11:11:37;34.10;23.90
20680;DHT22;10499;47.494;7.608;2023-02-15T11:14:35;34.70;23.30
20680;DHT22;10499;47.494;7.608;2023-02-15T11:17:10;34.70;23.20
20680;DHT22;10499;47.494;7.608;2023-02-15T11:19:51;34.60;23.00
20680;DHT22;10499;47.494;7.608;2023-02-15T11:22:18;34.20;23.50
20680;DHT22;10499;47.494;7.608;2023-02-15T11:24:45;33.80;23.70
20680;DHT22;10499;47.494;7.608;2023-02-15T11:27:41;33.10;24.40
20680;DHT22;10499;47.494;7.608;2023-02-15T11:30:19;33.30;24.50
20680;DHT22;10499;47.494;7.608;2023-02-15T11:32:52;33.60;24.30
20680;DHT22;10499;47.494;7.608;2023-02-15T11:35:21;33.90;24.30
20680;DHT22;10499;47.494;7.608;2023-02-15T11:38:12;32.50;24.70
20680;DHT22;10499;47.494;7.608;2023-02-15T11:40:48;32.80;25.00
20680;DHT22;10499;47.494;7.608;2023-02-15T11:43:29;33.40;24.30
20680;DHT22;10499;47.494;7.608;2023-02-15T11:45:57;33.70;24.20
20680;DHT22;10499;47.494;7.608;2023-02-15T11:48:22;33.10;24.40
20680;DHT22;10499;47.494;7.608;2023-02-15T11:50:48;32.20;25.00
20680;DHT22;10499;47.494;7.608;2023-02-15T11:53:19;31.50;25.00
20680;DHT22;10499;47.494;7.608;2023-02-15T11:55:54;32.40;24.70
20680;DHT22;10499;47.494;7.608;2023-02-15T11:58:28;32.40;24.80
20680;DHT22;10499;47.494;7.608;2023-02-15T12:01:13;32.70;24.20
20680;DHT22;10499;47.494;7.608;2023-02-15T12:03:57;32.40;24.70
20680;DHT22;10499;47.494;7.608;2023-02-15T12:06:26;31.90;25.00
20680;DHT22;10499;47.494;7.608;2023-02-15T12:09:23;31.20;25.50
20680;DHT22;10499;47.494;7.608;2023-02-15T12:11:50;31.20;25.60
20680;DHT22;10499;47.494;7.608;2023-02-15T12:14:16;30.20;26.60
20680;DHT22;10499;47.494;7.608;2023-02-15T12:16:50;30.00;26.80
20680;DHT22;10499;47.494;7.608;2023-02-15T12:19:53;30.10;27.00
20680;DHT22;10499;47.494;7.608;2023-02-15T12:22:27;30.30;26.60
20680;DHT22;10499;47.494;7.608;2023-02-15T12:24:56;30.70;26.30
20680;DHT22;10499;47.494;7.608;2023-02-15T12:27:29;30.60;26.40
20680;DHT22;10499;47.494;7.608;2023-02-15T12:29:59;30.90;26.60
20680;DHT22;10499;47.494;7.608;2023-02-15T12:32:31;30.70;26.90
20680;DHT22;10499;47.494;7.608;2023-02-15T12:35:13;29.80;27.50
20680;DHT22;10499;47.494;7.608;2023-02-15T12:38:04;29.90;27.30
20680;DHT22;10499;47.494;7.608;2023-02-15T12:40:32;29.70;27.80
20680;DHT22;10499;47.494;7.608;2023-02-15T12:42:59;30.30;27.10
20680;DHT22;10499;47.494;7.608;2023-02-15T12:45:29;30.50;27.20
20680;DHT22;10499;47.494;7.608;2023-02-15T12:48:16;29.10;27.70
20680;DHT22;10499;47.494;7.608;2023-02-15T12:50:50;29.20;28.40
20680;DHT22;10499;47.494;7.608;2023-02-15T12:53:19;29.70;28.10
20680;DHT22;10499;47.494;7.608;2023-02-15T12:55:59;29.40;28.00
20680;DHT22;10499;47.494;7.608;2023-02-15T12:58:28;29.50;28.40
20680;DHT22;10499;47.494;7.608;2023-02-15T13:01:17;29.00;28.30
20680;DHT22;10499;47.494;7.608;2023-02-15T13:03:59;28.40;29.00
20680;DHT22;10499;47.494;7.608;2023-02-15T13:06:27;28.20;29.40
20680;DHT22;10499;47.494;7.608;2023-02-15T13:08:57;28.80;28.40
20680;DHT22;10499;47.494;7.608;2023-02-15T13:11:28;28.80;28.20
20680;DHT22;10499;47.494;7.608;2023-02-15T13:14:02;29.10;28.30
20680;DHT22;10499;47.494;7.608;2023-02-15T13:16:37;28.70;28.70
20680;DHT22;10499;47.494;7.608;2023-02-15T13:19:31;28.90;28.80
20680;DHT22;10499;47.494;7.608;2023-02-15T13:22:25;28.60;29.20
20680;DHT22;10499;47.494;7.608;2023-02-15T13:24:56;28.00;29.50
20680;DHT22;10499;47.494;7.608;2023-02-15T13:27:29;27.70;30.00
20680;DHT22;10499;47.494;7.608;2023-02-15T13:29:59;27.90;30.40
20680;DHT22;10499;47.494;7.608;2023-02-15T13:41:30;27.40;31.10
20680;DHT22;10499;47.494;7.608;2023-02-15T13:44:12;27.20;31.10
20680;DHT22;10499;47.494;7.608;2023-02-15T14:31:52;25.00;33.50
20680;DHT22;10499;47.494;7.608;2023-02-15T14:35:40;24.90;34.00
20680;DHT22;10499;47.494;7.608;2023-02-15T14:41:02;24.50;34.20
20680;DHT22;10499;47.494;7.608;2023-02-15T14:48:49;24.90;33.20
20680;DHT22;10499;47.494;7.608;2023-02-15T14:59:56;23.40;35.40
20680;DHT22;10499;47.494;7.608;2023-02-15T15:02:50;23.70;35.80
20680;DHT22;10499;47.494;7.608;2023-02-15T15:05:58;23.60;35.90
20680;DHT22;10499;47.494;7.608;2023-02-15T15:08:41;23.40;36.30
20680;DHT22;10499;47.494;7.608;2023-02-15T15:14:00;23.50;36.50
20680;DHT22;10499;47.494;7.608;2023-02-15T15:19:05;23.50;36.20
20680;DHT22;10499;47.494;7.608;2023-02-15T15:38:22;21.70;40.10
20680;DHT22;10499;47.494;7.608;2023-02-15T15:49:38;21.00;41.60
20680;DHT22;10499;47.494;7.608;2023-02-15T15:52:30;20.90;41.50
20680;DHT22;10499;47.494;7.608;2023-02-15T15:55:13;20.50;42.40
20680;DHT22;10499;47.494;7.608;2023-02-15T15:57:42;20.10;43.40
20680;DHT22;10499;47.494;7.608;2023-02-15T16:03:27;18.60;47.30
20680;DHT22;10499;47.494;7.608;2023-02-15T16:05:53;18.40;47.90
20680;DHT22;10499;47.494;7.608;2023-02-15T16:08:47;18.00;47.70
20680;DHT22;10499;47.494;7.608;2023-02-15T16:11:24;18.30;47.70
20680;DHT22;10499;47.494;7.608;2023-02-15T16:13:53;18.40;47.50
20680;DHT22;10499;47.494;7.608;2023-02-15T16:16:26;18.30;47.70
20680;DHT22;10499;47.494;7.608;2023-02-15T16:18:54;18.20;47.80
20680;DHT22;10499;47.494;7.608;2023-02-15T16:21:25;17.80;48.70
20680;DHT22;10499;47.494;7.608;2023-02-15T16:29:25;16.60;51.60
20680;DHT22;10499;47.494;7.608;2023-02-15T16:32:22;16.10;52.90
20680;DHT22;10499;47.494;7.608;2023-02-15T16:34:55;15.80;53.80
20680;DHT22;10499;47.494;7.608;2023-02-15T16:37:24;15.70;54.40
20680;DHT22;10499;47.494;7.608;2023-02-15T16:39:53;15.70;54.40
20680;DHT22;10499;47.494;7.608;2023-02-15T16:42:20;15.60;54.60
20680;DHT22;10499;47.494;7.608;2023-02-15T16:44:50;15.40;54.70
20680;DHT22;10499;47.494;7.608;2023-02-15T16:47:26;15.10;56.10
20680;DHT22;10499;47.494;7.608;2023-02-15T16:49:55;14.90;56.20
20680;DHT22;10499;47.494;7.608;2023-02-15T16:52:25;14.80;57.00
20680;DHT22;10499;47.494;7.608;2023-02-15T16:54:57;14.70;56.70
20680;DHT22;10499;47.494;7.608;2023-02-15T16:57:30;14.50;57.50
20680;DHT22;10499;47.494;7.608;2023-02-15T17:00:05;14.30;57.80
20680;DHT22;10499;47.494;7.608;2023-02-15T17:02:32;14.00;58.30
20680;DHT22;10499;47.494;7.608;2023-02-15T17:08:03;13.90;58.80
20680;DHT22;10499;47.494;7.608;2023-02-15T17:13:12;13.40;60.90
20680;DHT22;10499;47.494;7.608;2023-02-15T17:15:43;13.40;60.90
20680;DHT22;10499;47.494;7.608;2023-02-15T17:18:21;13.30;60.80
20680;DHT22;10499;47.494;7.608;2023-02-15T17:20:50;13.10;61.60
20680;DHT22;10499;47.494;7.608;2023-02-15T17:23:32;13.00;62.10
20680;DHT22;10499;47.494;7.608;2023-02-15T17:26:00;12.90;62.60
20680;DHT22;10499;47.494;7.608;2023-02-15T17:28:31;12.60;63.40
20680;DHT22;10499;47.494;7.608;2023-02-15T17:30:58;12.40;64.40
20680;DHT22;10499;47.494;7.608;2023-02-15T17:36:25;12.00;65.80
20680;DHT22;10499;47.494;7.608;2023-02-15T17:41:26;11.80;66.50
20680;DHT22;10499;47.494;7.608;2023-02-15T17:43:52;11.70;66.90
20680;DHT22;10499;47.494;7.608;2023-02-15T17:46:18;11.70;66.90
20680;DHT22;10499;47.494;7.608;2023-02-15T17:48:48;11.70;67.40
20680;DHT22;10499;47.494;7.608;2023-02-15T17:51:15;11.70;67.80
20680;DHT22;10499;47.494;7.608;2023-02-15T17:53:42;11.60;67.40
20680;DHT22;10499;47.494;7.608;2023-02-15T17:56:27;11.40;67.80
20680;DHT22;10499;47.494;7.608;2023-02-15T17:58:52;11.10;68.90
20680;DHT22;10499;47.494;7.608;2023-02-15T18:01:19;11.10;69.10
20680;DHT22;10499;47.494;7.608;2023-02-15T18:04:04;11.00;69.40
20680;DHT22;10499;47.494;7.608;2023-02-15T18:06:51;10.80;70.30
20680;DHT22;10499;47.494;7.608;2023-02-15T18:09:35;10.60;70.80
20680;DHT22;10499;47.494;7.608;2023-02-15T18:12:33;10.30;72.00
20680;DHT22;10499;47.494;7.608;2023-02-15T18:14:59;10.20;72.30
20680;DHT22;10499;47.494;7.608;2023-02-15T18:17:32;10.20;72.80
20680;DHT22;10499;47.494;7.608;2023-02-15T18:19:58;10.00;73.50
20680;DHT22;10499;47.494;7.608;2023-02-15T18:22:27;10.10;73.40
20680;DHT22;10499;47.494;7.608;2023-02-15T18:24:53;10.00;73.60
20680;DHT22;10499;47.494;7.608;2023-02-15T18:27:19;10.00;73.70
20680;DHT22;10499;47.494;7.608;2023-02-15T18:29:45;9.90;74.10
20680;DHT22;10499;47.494;7.608;2023-02-15T18:32:18;9.80;74.90
20680;DHT22;10499;47.494;7.608;2023-02-15T18:34:46;9.30;76.20
20680;DHT22;10499;47.494;7.608;2023-02-15T18:37:18;9.20;77.10
20680;DHT22;10499;47.494;7.608;2023-02-15T18:39:55;9.30;77.40
20680;DHT22;10499;47.494;7.608;2023-02-15T18:42:29;9.30;76.80
20680;DHT22;10499;47.494;7.608;2023-02-15T18:45:12;9.20;77.20
20680;DHT22;10499;47.494;7.608;2023-02-15T18:47:38;9.00;77.90
20680;DHT22;10499;47.494;7.608;2023-02-15T18:50:05;9.10;78.00
20680;DHT22;10499;47.494;7.608;2023-02-15T18:52:34;9.10;78.20
20680;DHT22;10499;47.494;7.608;2023-02-15T18:55:03;9.10;78.00
20680;DHT22;10499;47.494;7.608;2023-02-15T18:57:31;9.00;78.30
20680;DHT22;10499;47.494;7.608;2023-02-15T18:59:57;9.00;78.50
20680;DHT22;10499;47.494;7.608;2023-02-15T19:02:22;8.80;79.20
20680;DHT22;10499;47.494;7.608;2023-02-15T19:04:48;8.60;80.60
20680;DHT22;10499;47.494;7.608;2023-02-15T19:07:24;8.30;81.70
20680;DHT22;10499;47.494;7.608;2023-02-15T19:09:54;8.30;81.50
20680;DHT22;10499;47.494;7.608;2023-02-15T19:12:20;8.40;81.50
20680;DHT22;10499;47.494;7.608;2023-02-15T19:14:46;8.40;81.40
20680;DHT22;10499;47.494;7.608;2023-02-15T19:17:17;8.40;81.50
20680;DHT22;10499;47.494;7.608;2023-02-15T19:19:44;8.30;81.80
20680;DHT22;10499;47.494;7.608;2023-02-15T19:22:15;8.30;81.50
20680;DHT22;10499;47.494;7.608;2023-02-15T19:24:43;8.20;82.20
20680;DHT22;10499;47.494;7.608;2023-02-15T19:29:53;8.00;84.20
20680;DHT22;10499;47.494;7.608;2023-02-15T19:32:19;7.90;85.70
20680;DHT22;10499;47.494;7.608;2023-02-15T19:34:45;7.90;86.60
20680;DHT22;10499;47.494;7.608;2023-02-15T19:39:46;8.10;85.70
20680;DHT22;10499;47.494;7.608;2023-02-15T19:42:20;8.00;86.10
20680;DHT22;10499;47.494;7.608;2023-02-15T19:44:46;8.00;85.90
20680;DHT22;10499;47.494;7.608;2023-02-15T19:47:12;8.00;85.00
20680;DHT22;10499;47.494;7.608;2023-02-15T19:49:38;7.80;86.40